createdAt,value
2023-01-22T00:02:30.763Z,1.93
2023-01-22T00:05:02.063Z,1.94
2023-01-22T00:07:33.786Z,1.90
2023-01-22T00:10:05.646Z,1.96
2023-01-22T00:12:36.953Z,1.95
2023-01-22T00:15:08.598Z,1.94
2023-01-22T00:17:39.917Z,1.77
2023-01-22T00:20:12.251Z,1.92
2023-01-22T00:22:43.536Z,1.91
2023-01-22T00:25:14.837Z,1.86
2023-01-22T00:27:46.301Z,1.88
2023-01-22T00:30:17.767Z,1.88
2023-01-22T00:32:49.303Z,1.87
2023-01-22T00:35:20.577Z,1.75
2023-01-22T00:37:51.958Z,1.85
2023-01-22T00:40:23.239Z,1.54
2023-01-22T00:42:54.514Z,1.68
2023-01-22T00:45:25.804Z,1.83
2023-01-22T00:47:57.073Z,1.83
2023-01-22T00:50:28.387Z,1.82
2023-01-22T00:53:00.423Z,1.83
2023-01-22T00:55:31.727Z,1.82
2023-01-22T00:58:03.162Z,1.81
2023-01-22T01:00:34.435Z,1.83
2023-01-22T01:03:24.538Z,1.69
2023-01-22T01:06:04.464Z,1.83
2023-01-22T01:08:38.533Z,1.72
2023-01-22T01:11:14.236Z,1.83
2023-01-22T01:13:45.612Z,1.75
2023-01-22T01:16:23.567Z,1.83
2023-01-22T01:18:59.731Z,1.83
2023-01-22T01:21:31.912Z,1.82
2023-01-22T01:24:03.357Z,1.84
2023-01-22T01:26:35.308Z,1.76
2023-01-22T01:29:09.850Z,1.86
2023-01-22T01:31:41.280Z,1.60
2023-01-22T01:34:13.495Z,1.87
2023-01-22T01:36:49.585Z,1.88
2023-01-22T01:39:21.340Z,1.88
2023-01-22T01:41:52.654Z,1.88
2023-01-22T01:44:24.639Z,1.88
2023-01-22T01:47:01.770Z,1.88
2023-01-22T01:49:47.398Z,1.77
2023-01-22T01:52:20.260Z,1.81
2023-01-22T01:54:55.863Z,1.89
2023-01-22T01:57:33.005Z,1.89
2023-01-22T02:00:10.518Z,1.88
2023-01-22T02:02:41.893Z,1.67
2023-01-22T02:05:13.167Z,1.90
2023-01-22T02:07:44.544Z,1.91
2023-01-22T02:10:17.105Z,1.84
2023-01-22T02:12:48.580Z,1.94
2023-01-22T02:15:19.971Z,1.95
2023-01-22T02:17:51.297Z,1.94
2023-01-22T02:20:22.630Z,1.93
2023-01-22T02:22:54.235Z,1.95
2023-01-22T02:25:25.670Z,1.95
2023-01-22T02:27:57.183Z,1.96
2023-01-22T02:30:28.847Z,1.96
2023-01-22T02:33:00.161Z,1.96
2023-01-22T02:35:31.431Z,1.93
2023-01-22T02:38:04.498Z,2.00
2023-01-22T02:40:35.830Z,2.00
2023-01-22T02:43:07.131Z,1.83
2023-01-22T02:45:38.524Z,1.93
2023-01-22T02:48:09.835Z,2.03
2023-01-22T02:50:41.260Z,1.99
2023-01-22T02:53:12.546Z,2.02
2023-01-22T02:55:46.138Z,2.06
2023-01-22T02:58:17.493Z,2.07
2023-01-22T03:00:48.858Z,1.99
2023-01-22T03:03:20.181Z,1.96
2023-01-22T03:05:52.395Z,2.06
2023-01-22T03:08:26.548Z,2.09
2023-01-22T03:10:58.589Z,2.09
2023-01-22T03:13:48.541Z,2.10
2023-01-22T03:16:38.624Z,2.09
2023-01-22T03:19:28.723Z,2.09
2023-01-22T03:22:00.070Z,2.10
2023-01-22T03:24:31.699Z,2.11
2023-01-22T03:27:04.031Z,2.11
2023-01-22T03:29:38.322Z,2.12
2023-01-22T03:32:09.742Z,2.05
2023-01-22T03:34:41.660Z,2.14
2023-01-22T03:37:13.458Z,2.14
2023-01-22T03:39:44.774Z,2.01
2023-01-22T03:42:16.054Z,1.87
2023-01-22T03:44:47.416Z,2.00
2023-01-22T03:47:18.680Z,2.07
2023-01-22T03:49:49.950Z,2.11
2023-01-22T03:52:21.375Z,1.99
2023-01-22T03:54:52.883Z,2.11
2023-01-22T03:57:24.168Z,1.85
2023-01-22T03:59:55.515Z,2.09
2023-01-22T04:02:26.826Z,2.09
2023-01-22T04:04:58.176Z,2.09
2023-01-22T04:07:29.455Z,2.09
2023-01-22T04:10:00.712Z,2.10
2023-01-22T04:12:32.133Z,2.11
2023-01-22T04:15:03.671Z,2.08
2023-01-22T04:17:34.959Z,2.12
2023-01-22T04:20:06.775Z,2.11
2023-01-22T04:22:38.119Z,2.12
2023-01-22T04:25:09.541Z,2.11
2023-01-22T04:27:40.809Z,2.11
2023-01-22T04:30:12.410Z,2.11
2023-01-22T04:32:44.326Z,2.00
2023-01-22T04:35:15.642Z,2.12
2023-01-22T04:37:46.919Z,2.13
2023-01-22T04:40:18.597Z,2.10
2023-01-22T04:42:50.479Z,2.16
2023-01-22T04:45:21.830Z,1.96
2023-01-22T04:47:53.164Z,2.16
2023-01-22T04:50:27.381Z,2.10
2023-01-22T04:53:00.330Z,2.19
2023-01-22T04:55:32.067Z,2.07
2023-01-22T04:58:03.504Z,2.18
2023-01-22T05:00:34.839Z,2.20
2023-01-22T05:03:06.265Z,2.19
2023-01-22T05:05:37.567Z,2.17
2023-01-22T05:08:08.858Z,1.91
2023-01-22T05:10:40.445Z,2.19
2023-01-22T05:13:11.731Z,2.18
2023-01-22T05:15:43.059Z,2.16
2023-01-22T05:18:14.541Z,2.14
2023-01-22T05:20:45.827Z,2.14
2023-01-22T05:23:17.087Z,2.12
2023-01-22T05:25:49.512Z,2.00
2023-01-22T05:28:20.850Z,2.07
2023-01-22T05:30:52.265Z,2.03
2023-01-22T05:33:23.614Z,2.13
2023-01-22T05:35:56.973Z,2.14
2023-01-22T05:38:31.027Z,2.15
2023-01-22T05:41:02.321Z,2.16
2023-01-22T05:43:37.057Z,2.02
2023-01-22T05:46:08.401Z,2.16
2023-01-22T05:48:39.693Z,2.09
2023-01-22T05:51:11.050Z,2.20
2023-01-22T05:53:42.392Z,2.14
2023-01-22T05:56:13.687Z,2.10
2023-01-22T05:58:45.093Z,2.20
2023-01-22T06:01:16.755Z,2.24
2023-01-22T06:03:48.234Z,2.18
2023-01-22T06:06:19.616Z,2.21
2023-01-22T06:08:52.675Z,2.26
2023-01-22T06:11:24.020Z,2.23
2023-01-22T06:13:55.313Z,2.26
2023-01-22T06:16:26.585Z,2.25
2023-01-22T06:18:57.867Z,2.24
2023-01-22T06:21:29.151Z,2.38
2023-01-22T06:24:00.473Z,2.39
2023-01-22T06:26:31.782Z,2.34
2023-01-22T06:29:03.539Z,2.31
2023-01-22T06:31:34.989Z,2.28
2023-01-22T06:34:06.455Z,2.28
2023-01-22T06:36:37.842Z,2.28
2023-01-22T06:39:09.246Z,2.32
2023-01-22T06:41:40.566Z,2.40
2023-01-22T06:44:11.857Z,2.31
2023-01-22T06:46:43.222Z,2.40
2023-01-22T06:49:14.908Z,2.27
2023-01-22T06:51:46.201Z,2.40
2023-01-22T06:54:17.520Z,2.22
2023-01-22T06:56:48.870Z,2.41
2023-01-22T06:59:20.156Z,2.24
2023-01-22T07:01:51.527Z,2.42
2023-01-22T07:04:22.842Z,2.33
2023-01-22T07:06:54.127Z,2.46
2023-01-22T07:09:25.495Z,2.38
2023-01-22T07:11:58.506Z,2.47
2023-01-22T07:14:36.748Z,2.21
2023-01-22T07:17:08.573Z,2.43
2023-01-22T07:19:39.881Z,2.41
2023-01-22T07:22:11.165Z,2.49
2023-01-22T07:24:42.427Z,2.50
2023-01-22T07:27:13.730Z,2.59
2023-01-22T07:29:45.136Z,2.54
2023-01-22T07:32:16.683Z,2.55
2023-01-22T07:34:47.995Z,2.54
2023-01-22T07:37:19.309Z,2.59
2023-01-22T07:39:50.598Z,2.58
2023-01-22T07:42:21.879Z,2.64
2023-01-22T07:44:53.254Z,2.54
2023-01-22T07:47:24.546Z,2.58
2023-01-22T07:49:55.875Z,2.63
2023-01-22T07:52:27.149Z,2.72
2023-01-22T07:54:59.433Z,2.74
2023-01-22T07:57:30.747Z,2.73
2023-01-22T08:00:02.034Z,2.63
2023-01-22T08:02:33.300Z,2.78
2023-01-22T08:05:06.175Z,2.78
2023-01-22T08:07:37.477Z,2.80
2023-01-22T08:10:09.519Z,2.52
2023-01-22T08:12:42.396Z,2.84
2023-01-22T08:15:14.377Z,2.81
2023-01-22T08:17:49.973Z,2.85
2023-01-22T08:20:21.686Z,2.75
2023-01-22T08:23:00.369Z,2.90
2023-01-22T08:25:31.669Z,2.77
2023-01-22T08:28:04.950Z,2.94
2023-01-22T08:30:45.411Z,2.98
2023-01-22T08:33:17.560Z,2.94
2023-01-22T08:35:50.045Z,3.05
2023-01-22T08:38:21.476Z,3.08
2023-01-22T08:40:53.380Z,3.09
2023-01-22T08:43:24.711Z,3.11
2023-01-22T08:45:56.057Z,3.13
2023-01-22T08:48:27.387Z,3.15
2023-01-22T08:51:01.846Z,3.18
2023-01-22T08:53:33.182Z,3.14
2023-01-22T08:56:04.922Z,3.21
2023-01-22T08:58:36.198Z,3.23
2023-01-22T09:01:07.779Z,3.25
2023-01-22T09:03:39.079Z,3.26
2023-01-22T09:06:11.086Z,3.28
2023-01-22T09:08:42.575Z,3.17
2023-01-22T09:11:14.006Z,3.27
2023-01-22T09:13:45.431Z,3.28
2023-01-22T09:16:16.737Z,3.42
2023-01-22T09:18:48.014Z,3.39
2023-01-22T09:21:19.905Z,3.54
2023-01-22T09:23:51.365Z,3.55
2023-01-22T09:26:22.701Z,3.68
2023-01-22T09:28:53.994Z,3.72
2023-01-22T09:31:25.289Z,3.76
2023-01-22T09:33:56.617Z,3.65
2023-01-22T09:36:28.431Z,3.70
2023-01-22T09:38:59.713Z,3.65
2023-01-22T09:41:36.172Z,3.62
2023-01-22T09:44:18.042Z,3.47
2023-01-22T09:46:54.107Z,3.60
2023-01-22T09:49:35.427Z,3.58
2023-01-22T09:52:06.813Z,3.58
2023-01-22T09:54:38.221Z,3.50
2023-01-22T09:57:29.889Z,3.52
2023-01-22T10:00:03.484Z,3.53
2023-01-22T10:02:44.019Z,3.72
2023-01-22T10:05:23.572Z,3.73
2023-01-22T10:08:23.368Z,3.73
2023-01-22T10:10:54.837Z,3.64
2023-01-22T10:13:33.237Z,3.70
2023-01-22T10:16:05.877Z,3.61
2023-01-22T10:18:46.288Z,3.68
2023-01-22T10:21:33.695Z,3.58
2023-01-22T10:24:05.232Z,3.58
2023-01-22T10:26:54.106Z,3.56
2023-01-22T10:29:31.657Z,3.59
2023-01-22T10:32:27.507Z,3.66
2023-01-22T10:35:06.318Z,3.63
2023-01-22T10:37:49.373Z,3.82
2023-01-22T10:40:30.814Z,3.91
2023-01-22T10:43:17.594Z,3.98
2023-01-22T10:45:52.275Z,4.01
2023-01-22T10:48:23.865Z,3.93
2023-01-22T10:51:20.033Z,4.05
2023-01-22T10:53:57.008Z,4.10
2023-01-22T10:56:36.078Z,4.13
2023-01-22T10:59:24.601Z,4.19
2023-01-22T11:02:01.789Z,4.27
2023-01-22T11:04:34.012Z,4.34
2023-01-22T11:07:14.349Z,4.39
2023-01-22T11:10:03.606Z,4.27
2023-01-22T11:12:40.925Z,4.39
2023-01-22T11:15:22.572Z,4.27
2023-01-22T11:17:59.784Z,4.39
2023-01-22T11:20:47.644Z,4.41
2023-01-22T11:23:39.024Z,4.40
2023-01-22T11:26:39.197Z,4.43
2023-01-22T11:29:16.521Z,4.45
2023-01-22T11:32:17.627Z,4.45
2023-01-22T11:35:01.591Z,4.47
2023-01-22T11:37:58.841Z,4.48
2023-01-22T11:40:34.306Z,4.47
2023-01-22T11:43:14.733Z,4.45
2023-01-22T11:46:22.494Z,4.48
2023-01-22T11:48:53.824Z,4.56
2023-01-22T11:51:34.491Z,4.59
2023-01-22T11:54:30.111Z,4.66
2023-01-22T11:57:20.248Z,4.74
2023-01-22T12:00:22.520Z,4.78
2023-01-22T12:03:11.869Z,4.80
2023-01-22T12:05:58.355Z,4.76
2023-01-22T12:08:52.479Z,4.77
2023-01-22T12:11:30.848Z,4.78
2023-01-22T12:14:20.630Z,4.75
2023-01-22T12:17:13.374Z,4.72
2023-01-22T12:20:26.612Z,4.67
2023-01-22T12:23:25.484Z,4.64
2023-01-22T12:26:11.339Z,4.64
2023-01-22T12:29:04.757Z,4.65
2023-01-22T12:31:42.769Z,4.59
2023-01-22T12:34:25.222Z,4.59
2023-01-22T12:36:58.252Z,4.58
2023-01-22T12:39:38.894Z,4.48
2023-01-22T12:42:24.607Z,4.57
2023-01-22T12:45:06.699Z,4.39
2023-01-22T12:47:56.118Z,4.52
2023-01-22T12:50:27.589Z,4.56
2023-01-22T12:53:01.059Z,4.55
2023-01-22T12:55:37.781Z,4.54
2023-01-22T12:58:23.064Z,4.59
2023-01-22T13:01:05.667Z,4.58
2023-01-22T13:03:39.272Z,4.62
2023-01-22T13:06:30.609Z,4.50
2023-01-22T13:09:03.588Z,4.50
2023-01-22T13:11:38.010Z,4.53
2023-01-22T13:14:19.965Z,4.63
2023-01-22T13:17:03.657Z,4.51
2023-01-22T13:19:44.740Z,4.59
2023-01-22T13:22:19.707Z,4.60
2023-01-22T13:24:56.833Z,4.60
2023-01-22T13:27:31.629Z,4.64
2023-01-22T13:30:16.321Z,4.63
2023-01-22T13:32:47.681Z,4.62
2023-01-22T13:35:20.064Z,4.64
2023-01-22T13:37:51.490Z,4.59
2023-01-22T13:40:30.284Z,4.58
2023-01-22T13:43:05.708Z,4.57
2023-01-22T13:45:39.889Z,4.61
2023-01-22T13:48:17.615Z,4.60
2023-01-22T13:51:18.178Z,4.64
2023-01-22T13:53:54.693Z,4.57
2023-01-22T13:56:27.791Z,4.65
2023-01-22T13:59:07.461Z,4.63
2023-01-22T14:01:38.775Z,4.63
2023-01-22T14:04:32.718Z,4.67
2023-01-22T14:07:07.208Z,4.51
2023-01-22T14:09:40.367Z,4.54
2023-01-22T14:12:17.200Z,4.65
2023-01-22T14:14:48.810Z,4.63
2023-01-22T14:17:38.396Z,4.63
2023-01-22T14:20:10.551Z,4.59
2023-01-22T14:22:41.830Z,4.62
2023-01-22T14:25:13.128Z,4.66
2023-01-22T14:27:46.891Z,4.69
2023-01-22T14:30:20.822Z,4.71
2023-01-22T14:32:52.258Z,4.66
2023-01-22T14:35:26.431Z,4.68
2023-01-22T14:37:57.815Z,4.72
2023-01-22T14:40:30.312Z,4.55
2023-01-22T14:43:02.367Z,4.66
2023-01-22T14:45:33.850Z,4.59
2023-01-22T14:48:05.701Z,4.54
2023-01-22T14:50:39.257Z,4.52
2023-01-22T14:53:11.806Z,4.55
2023-01-22T14:55:43.813Z,4.53
2023-01-22T14:58:16.157Z,4.46
2023-01-22T15:00:47.624Z,4.42
2023-01-22T15:03:19.032Z,4.39
2023-01-22T15:05:51.967Z,4.33
2023-01-22T15:08:23.602Z,4.10
2023-01-22T15:10:54.871Z,4.21
2023-01-22T15:13:26.547Z,4.30
2023-01-22T15:16:09.256Z,4.27
2023-01-22T15:18:40.807Z,4.19
2023-01-22T15:21:12.336Z,4.28
2023-01-22T15:23:43.603Z,4.25
2023-01-22T15:26:35.357Z,4.32
2023-01-22T15:29:08.631Z,4.34
2023-01-22T15:31:40.680Z,4.36
2023-01-22T15:34:11.955Z,4.26
2023-01-22T15:36:43.370Z,4.30
2023-01-22T15:39:14.798Z,4.36
2023-01-22T15:41:46.318Z,4.38
2023-01-22T15:44:17.586Z,4.37
2023-01-22T15:46:48.989Z,4.28
2023-01-22T15:49:20.282Z,4.40
2023-01-22T15:51:51.591Z,4.32
2023-01-22T15:54:25.579Z,4.35
2023-01-22T15:56:57.454Z,4.43
2023-01-22T15:59:28.955Z,4.33
2023-01-22T16:02:00.258Z,4.46
2023-01-22T16:04:31.520Z,4.38
2023-01-22T16:07:03.630Z,4.47
2023-01-22T16:09:34.951Z,4.47
2023-01-22T16:12:06.714Z,4.48
2023-01-22T16:14:37.967Z,4.42
2023-01-22T16:17:09.263Z,4.46
2023-01-22T16:19:41.203Z,4.43
2023-01-22T16:22:12.863Z,4.41
2023-01-22T16:24:44.171Z,4.35
2023-01-22T16:27:15.517Z,4.36
2023-01-22T16:29:46.867Z,4.30
2023-01-22T16:32:18.231Z,4.14
2023-01-22T16:34:49.676Z,4.17
2023-01-22T16:37:21.027Z,4.09
2023-01-22T16:39:52.327Z,4.02
2023-01-22T16:42:23.630Z,3.84
2023-01-22T16:44:54.882Z,3.80
2023-01-22T16:47:26.297Z,3.82
2023-01-22T16:49:57.585Z,3.79
2023-01-22T16:52:29.099Z,3.75
2023-01-22T16:55:00.372Z,3.72
2023-01-22T16:57:31.633Z,3.67
2023-01-22T17:00:04.684Z,3.60
2023-01-22T17:02:36.028Z,3.61
2023-01-22T17:05:12.713Z,3.58
2023-01-22T17:07:44.038Z,3.56
2023-01-22T17:10:15.330Z,3.57
2023-01-22T17:12:46.638Z,3.57
2023-01-22T17:15:18.365Z,3.56
2023-01-22T17:17:49.709Z,3.57
2023-01-22T17:20:21.226Z,3.57
2023-01-22T17:22:53.658Z,3.43
2023-01-22T17:25:25.077Z,3.56
2023-01-22T17:27:56.468Z,3.55
2023-01-22T17:30:27.840Z,3.64
2023-01-22T17:32:59.231Z,3.65
2023-01-22T17:35:30.527Z,3.66
2023-01-22T17:38:01.811Z,3.67
2023-01-22T17:40:33.107Z,3.64
2023-01-22T17:43:04.398Z,3.72
2023-01-22T17:45:39.233Z,3.63
2023-01-22T17:48:10.499Z,3.65
2023-01-22T17:50:42.977Z,3.78
2023-01-22T17:53:14.342Z,3.78
2023-01-22T17:55:45.718Z,3.72
2023-01-22T17:58:18.664Z,3.71
2023-01-22T18:00:49.965Z,3.82
2023-01-22T18:03:21.281Z,3.83
2023-01-22T18:05:54.481Z,3.85
2023-01-22T18:08:28.227Z,3.84
2023-01-22T18:11:04.108Z,3.85
2023-01-22T18:13:36.637Z,3.86
2023-01-22T18:16:11.793Z,3.88
2023-01-22T18:18:43.942Z,3.88
2023-01-22T18:21:18.929Z,3.87
2023-01-22T18:23:50.673Z,3.81
2023-01-22T18:26:23.043Z,3.88
2023-01-22T18:28:57.051Z,3.88
2023-01-22T18:31:29.356Z,3.88
2023-01-22T18:34:03.418Z,3.90
2023-01-22T18:36:37.782Z,3.75
2023-01-22T18:39:14.750Z,3.92
2023-01-22T18:41:47.057Z,3.92
2023-01-22T18:44:19.742Z,3.78
2023-01-22T18:46:52.255Z,3.92
2023-01-22T18:49:23.842Z,3.80
2023-01-22T18:51:59.024Z,3.92
2023-01-22T18:54:30.381Z,3.92
2023-01-22T18:57:01.735Z,3.93
2023-01-22T18:59:33.034Z,3.93
2023-01-22T19:02:04.433Z,3.85
2023-01-22T19:04:35.905Z,3.94
2023-01-22T19:07:07.283Z,3.91
2023-01-22T19:09:39.912Z,3.94
2023-01-22T19:12:13.477Z,3.84
2023-01-22T19:14:45.062Z,3.89
2023-01-22T19:17:16.371Z,3.90
2023-01-22T19:19:47.786Z,3.86
2023-01-22T19:22:19.129Z,3.94
2023-01-22T19:24:50.759Z,3.97
2023-01-22T19:27:22.020Z,3.95
2023-01-22T19:29:53.991Z,3.90
2023-01-22T19:32:27.991Z,3.98
2023-01-22T19:34:59.365Z,3.92
2023-01-22T19:37:30.838Z,3.90
2023-01-22T19:40:02.136Z,3.89
2023-01-22T19:42:33.597Z,3.96
2023-01-22T19:45:05.241Z,3.98
2023-01-22T19:47:36.591Z,3.97
2023-01-22T19:50:08.742Z,3.90
2023-01-22T19:52:40.100Z,3.97
2023-01-22T19:55:11.431Z,3.88
2023-01-22T19:57:42.701Z,3.93
2023-01-22T20:00:14.281Z,3.90
2023-01-22T20:02:45.946Z,3.98
2023-01-22T20:05:17.982Z,3.87
2023-01-22T20:07:49.965Z,3.86
2023-01-22T20:10:21.352Z,3.97
2023-01-22T20:12:52.633Z,3.98
2023-01-22T20:15:24.050Z,3.69
2023-01-22T20:17:55.490Z,3.90
2023-01-22T20:20:26.855Z,3.99
2023-01-22T20:22:58.192Z,3.99
2023-01-22T20:25:31.891Z,3.90
2023-01-22T20:28:03.303Z,3.99
2023-01-22T20:30:34.748Z,3.76
2023-01-22T20:33:06.042Z,3.91
2023-01-22T20:35:41.687Z,3.99
2023-01-22T20:38:13.128Z,4.01
2023-01-22T20:40:46.010Z,3.99
2023-01-22T20:43:18.118Z,3.98
2023-01-22T20:46:07.962Z,3.98
2023-01-22T20:48:39.483Z,3.91
2023-01-22T20:51:16.765Z,3.97
2023-01-22T20:53:50.200Z,3.95
2023-01-22T20:56:27.134Z,3.97
2023-01-22T20:59:04.711Z,3.88
2023-01-22T21:01:36.064Z,3.83
2023-01-22T21:04:07.454Z,3.92
2023-01-22T21:06:39.548Z,3.88
2023-01-22T21:09:11.165Z,3.88
2023-01-22T21:11:43.567Z,3.81
2023-01-22T21:14:16.413Z,3.85
2023-01-22T21:16:48.935Z,3.60
2023-01-22T21:19:23.555Z,3.83
2023-01-22T21:21:57.171Z,3.84
2023-01-22T21:24:28.450Z,3.72
2023-01-22T21:26:59.778Z,3.83
2023-01-22T21:29:31.228Z,3.82
2023-01-22T21:32:03.014Z,3.69
2023-01-22T21:34:36.228Z,3.74
2023-01-22T21:37:07.736Z,3.61
2023-01-22T21:39:44.848Z,3.62
2023-01-22T21:42:34.889Z,3.56
2023-01-22T21:45:25.440Z,3.45
2023-01-22T21:47:56.713Z,3.51
2023-01-22T21:50:28.027Z,3.41
2023-01-22T21:52:59.378Z,3.47
2023-01-22T21:55:31.145Z,3.47
2023-01-22T21:58:03.690Z,3.47
2023-01-22T22:00:35.051Z,3.42
2023-01-22T22:03:06.311Z,3.48
2023-01-22T22:05:39.917Z,3.50
2023-01-22T22:08:11.278Z,3.50
2023-01-22T22:10:49.339Z,3.52
2023-01-22T22:13:20.663Z,3.54
2023-01-22T22:15:51.971Z,3.56
2023-01-22T22:18:23.257Z,3.56
2023-01-22T22:20:55.054Z,3.57
2023-01-22T22:23:26.500Z,3.57
2023-01-22T22:25:58.554Z,3.54
2023-01-22T22:28:30.334Z,3.55
2023-01-22T22:31:13.793Z,3.48
2023-01-22T22:33:47.781Z,3.54
2023-01-22T22:36:24.792Z,3.54
2023-01-22T22:38:56.407Z,3.53
2023-01-22T22:41:30.753Z,3.48
2023-01-22T22:44:02.112Z,3.46
2023-01-22T22:46:36.224Z,3.57
2023-01-22T22:49:11.791Z,3.57
2023-01-22T22:51:44.065Z,3.58
2023-01-22T22:54:18.233Z,3.57
2023-01-22T22:56:51.102Z,3.45
2023-01-22T22:59:22.551Z,3.56
2023-01-22T23:01:53.844Z,3.46
2023-01-22T23:04:25.196Z,3.53
2023-01-22T23:06:56.533Z,3.52
2023-01-22T23:09:28.394Z,3.52
2023-01-22T23:11:59.731Z,3.50
2023-01-22T23:14:31.004Z,3.46
2023-01-22T23:17:04.570Z,3.49
2023-01-22T23:19:35.851Z,3.49
2023-01-22T23:22:07.133Z,3.50
2023-01-22T23:24:39.282Z,3.41
2023-01-22T23:27:10.574Z,3.47
2023-01-22T23:29:41.883Z,3.49
2023-01-22T23:32:13.158Z,3.48
2023-01-22T23:34:44.419Z,3.48
2023-01-22T23:37:15.711Z,3.40
2023-01-22T23:39:50.980Z,3.48
2023-01-22T23:42:22.851Z,3.46
2023-01-22T23:44:54.135Z,3.47
2023-01-22T23:47:27.123Z,3.36
2023-01-22T23:49:58.507Z,3.45
2023-01-22T23:52:29.889Z,3.42
2023-01-22T23:55:01.210Z,3.44
2023-01-22T23:57:32.539Z,3.43
